NKS480 KMSY-KTPA
Flight info
| Callsign | NKS480 |
|---|---|
| Flight time | 1h 6m |
| Altitude | 37000 |
| Route | REDFN Y280 CHRGE RAYZZ3 |
| Aircraft | A320/M-SDE3FGHIRWY/LB1 |
Departure
| Time | 2026-04-30 13:10 |
|---|---|
| Airport | Louis Armstrong New Orleans International Airport (KMSY) |
Arrival
| Time | 2026-04-30 14:17 |
|---|---|
| Airport | Tampa International Airport (KTPA) |
| Time | Latitude | Longitude | Altitude | Speed | Heading |
|---|---|---|---|---|---|
| 2026-04-30 12:44 | 29.99296 | -90.25327 | 7 ft | 0 kts | 324° |
| 2026-04-30 12:56 | 29.99295 | -90.25327 | 7 ft | 0 kts | 324° |
| 2026-04-30 12:59 | 29.99294 | -90.25326 | 7 ft | 2 kts | 324° |
| 2026-04-30 12:59 | 29.99274 | -90.25308 | 6 ft | 4 kts | 322° |
| 2026-04-30 13:00 | 29.99260 | -90.25296 | 6 ft | 4 kts | 310° |
| 2026-04-30 13:00 | 29.99250 | -90.25272 | 6 ft | 4 kts | 257° |
| 2026-04-30 13:00 | 29.99258 | -90.25256 | 6 ft | 0 kts | 217° |
| 2026-04-30 13:03 | 29.99254 | -90.25259 | 6 ft | 3 kts | 217° |
| 2026-04-30 13:03 | 29.99222 | -90.25296 | 6 ft | 8 kts | 236° |
| 2026-04-30 13:04 | 29.99200 | -90.25365 | 6 ft | 10 kts | 263° |
| 2026-04-30 13:04 | 29.99202 | -90.25457 | 6 ft | 13 kts | 272° |
| 2026-04-30 13:04 | 29.99201 | -90.25569 | 6 ft | 15 kts | 266° |
| 2026-04-30 13:04 | 29.99208 | -90.25692 | 6 ft | 16 kts | 279° |
| 2026-04-30 13:05 | 29.99229 | -90.25797 | 6 ft | 10 kts | 286° |
| 2026-04-30 13:05 | 29.99277 | -90.25857 | 6 ft | 12 kts | 340° |
| 2026-04-30 13:05 | 29.99341 | -90.25895 | 6 ft | 10 kts | 303° |
| 2026-04-30 13:06 | 29.99387 | -90.26089 | 6 ft | 15 kts | 285° |
| 2026-04-30 13:06 | 29.99412 | -90.26196 | 6 ft | 17 kts | 285° |
| 2026-04-30 13:06 | 29.99446 | -90.26335 | 6 ft | 19 kts | 285° |
| 2026-04-30 13:06 | 29.99483 | -90.26490 | 7 ft | 21 kts | 286° |
| 2026-04-30 13:07 | 29.99526 | -90.26659 | 8 ft | 21 kts | 286° |
| 2026-04-30 13:07 | 29.99564 | -90.26817 | 6 ft | 19 kts | 286° |
| 2026-04-30 13:07 | 29.99597 | -90.26951 | 6 ft | 18 kts | 286° |
| 2026-04-30 13:07 | 29.99633 | -90.27100 | 6 ft | 20 kts | 285° |
| 2026-04-30 13:08 | 29.99670 | -90.27253 | 7 ft | 18 kts | 285° |
| 2026-04-30 13:08 | 29.99700 | -90.27378 | 6 ft | 16 kts | 285° |
| 2026-04-30 13:08 | 29.99728 | -90.27494 | 6 ft | 15 kts | 285° |
| 2026-04-30 13:08 | 29.99748 | -90.27592 | 6 ft | 12 kts | 275° |
| 2026-04-30 13:09 | 29.99708 | -90.27669 | 6 ft | 12 kts | 206° |
| 2026-04-30 13:09 | 29.99621 | -90.27700 | 4 ft | 12 kts | 196° |
| 2026-04-30 13:09 | 29.99561 | -90.27714 | 3 ft | 5 kts | 175° |
| 2026-04-30 13:09 | 29.99543 | -90.27673 | 3 ft | 10 kts | 104° |
| 2026-04-30 13:10 | 29.99461 | -90.27330 | 6 ft | 81 kts | 105° |
| 2026-04-30 13:10 | 29.99256 | -90.26485 | 9 ft | 135 kts | 105° |
| 2026-04-30 13:10 | 29.98965 | -90.25278 | 70 ft | 171 kts | 104° |
| 2026-04-30 13:10 | 29.98657 | -90.23991 | 754 ft | 164 kts | 107° |
| 2026-04-30 13:11 | 29.98361 | -90.22721 | 1365 ft | 164 kts | 108° |
| 2026-04-30 13:11 | 29.98083 | -90.21432 | 1852 ft | 173 kts | 106° |
| 2026-04-30 13:11 | 29.97790 | -90.20011 | 2155 ft | 191 kts | 105° |
| 2026-04-30 13:11 | 29.97493 | -90.18454 | 2479 ft | 208 kts | 104° |
| 2026-04-30 13:12 | 29.97184 | -90.16735 | 2734 ft | 231 kts | 103° |
| 2026-04-30 13:12 | 29.96792 | -90.14822 | 2993 ft | 259 kts | 113° |
| 2026-04-30 13:12 | 29.95804 | -90.13015 | 3470 ft | 273 kts | 131° |
| 2026-04-30 13:13 | 29.93277 | -90.09689 | 5181 ft | 279 kts | 134° |
| 2026-04-30 13:13 | 29.91965 | -90.08014 | 5992 ft | 284 kts | 134° |
| 2026-04-30 13:13 | 29.89289 | -90.04536 | 7481 ft | 297 kts | 134° |
| 2026-04-30 13:14 | 29.87934 | -90.02717 | 8245 ft | 302 kts | 133° |
| 2026-04-30 13:14 | 29.86560 | -90.00852 | 9171 ft | 308 kts | 134° |
| 2026-04-30 13:14 | 29.83738 | -89.97021 | 10395 ft | 331 kts | 135° |
| 2026-04-30 13:15 | 29.82180 | -89.94921 | 10567 ft | 353 kts | 134° |
| 2026-04-30 13:15 | 29.78907 | -89.90506 | 11732 ft | 369 kts | 134° |
| 2026-04-30 13:15 | 29.77227 | -89.88240 | 12499 ft | 375 kts | 134° |
| 2026-04-30 13:16 | 29.75515 | -89.85935 | 13155 ft | 382 kts | 134° |
| 2026-04-30 13:16 | 29.73771 | -89.83585 | 13673 ft | 389 kts | 134° |
| 2026-04-30 13:16 | 29.72002 | -89.81201 | 14165 ft | 395 kts | 134° |
| 2026-04-30 13:17 | 29.68414 | -89.76376 | 15217 ft | 402 kts | 134° |
| 2026-04-30 13:17 | 29.66585 | -89.73920 | 15758 ft | 406 kts | 134° |
| 2026-04-30 13:17 | 29.62873 | -89.68944 | 16837 ft | 413 kts | 134° |
| 2026-04-30 13:18 | 29.60997 | -89.66434 | 17372 ft | 417 kts | 134° |
| 2026-04-30 13:18 | 29.57179 | -89.61328 | 18409 ft | 424 kts | 134° |
| 2026-04-30 13:18 | 29.55254 | -89.58750 | 18872 ft | 428 kts | 134° |
| 2026-04-30 13:19 | 29.53305 | -89.56141 | 19323 ft | 431 kts | 134° |
| 2026-04-30 13:19 | 29.51344 | -89.53521 | 19789 ft | 435 kts | 133° |
| 2026-04-30 13:19 | 29.49359 | -89.50874 | 20263 ft | 438 kts | 133° |
| 2026-04-30 13:19 | 29.47368 | -89.48218 | 20711 ft | 441 kts | 133° |
| 2026-04-30 13:20 | 29.45358 | -89.45537 | 21143 ft | 445 kts | 133° |
| 2026-04-30 13:20 | 29.43333 | -89.42838 | 21582 ft | 448 kts | 133° |
| 2026-04-30 13:20 | 29.41291 | -89.40119 | 22005 ft | 451 kts | 133° |
| 2026-04-30 13:20 | 29.39241 | -89.37386 | 22432 ft | 454 kts | 133° |
| 2026-04-30 13:21 | 29.37173 | -89.34635 | 22852 ft | 457 kts | 133° |
| 2026-04-30 13:21 | 29.35116 | -89.31905 | 23276 ft | 460 kts | 133° |
| 2026-04-30 13:21 | 29.33015 | -89.29120 | 23649 ft | 463 kts | 132° |
| 2026-04-30 13:22 | 29.28780 | -89.23503 | 24356 ft | 468 kts | 132° |
| 2026-04-30 13:22 | 29.26646 | -89.20673 | 24728 ft | 470 kts | 132° |
| 2026-04-30 13:22 | 29.22349 | -89.14984 | 25415 ft | 474 kts | 133° |
| 2026-04-30 13:23 | 29.20182 | -89.12120 | 25752 ft | 477 kts | 133° |
| 2026-04-30 13:23 | 29.15816 | -89.06351 | 26459 ft | 482 kts | 133° |
| 2026-04-30 13:24 | 29.11399 | -89.00524 | 27136 ft | 487 kts | 133° |
| 2026-04-30 13:24 | 29.06940 | -88.94649 | 27805 ft | 491 kts | 133° |
| 2026-04-30 13:25 | 29.02461 | -88.88761 | 28491 ft | 496 kts | 133° |
| 2026-04-30 13:25 | 28.97902 | -88.82778 | 29210 ft | 500 kts | 132° |
| 2026-04-30 13:26 | 28.91027 | -88.73716 | 30209 ft | 507 kts | 129° |
| 2026-04-30 13:26 | 28.87429 | -88.66758 | 30734 ft | 512 kts | 111° |
| 2026-04-30 13:27 | 28.85217 | -88.59024 | 31425 ft | 512 kts | 105° |
| 2026-04-30 13:28 | 28.81998 | -88.47430 | 32575 ft | 511 kts | 105° |
| 2026-04-30 13:28 | 28.79873 | -88.39776 | 33477 ft | 507 kts | 105° |
| 2026-04-30 13:28 | 28.78807 | -88.35944 | 33890 ft | 506 kts | 105° |
| 2026-04-30 13:29 | 28.76671 | -88.28299 | 34552 ft | 506 kts | 105° |
| 2026-04-30 13:29 | 28.74527 | -88.20653 | 35105 ft | 507 kts | 105° |
| 2026-04-30 13:30 | 28.71297 | -88.09148 | 35905 ft | 509 kts | 105° |
| 2026-04-30 13:31 | 28.69140 | -88.01486 | 36526 ft | 507 kts | 105° |
| 2026-04-30 13:31 | 28.65891 | -87.89996 | 36979 ft | 509 kts | 105° |
| 2026-04-30 13:32 | 28.63735 | -87.82382 | 36979 ft | 508 kts | 105° |
| 2026-04-30 13:33 | 28.59396 | -87.67114 | 36975 ft | 505 kts | 105° |
| 2026-04-30 13:34 | 28.56147 | -87.55740 | 36983 ft | 504 kts | 105° |
| 2026-04-30 13:35 | 28.51799 | -87.40567 | 36994 ft | 505 kts | 105° |
| 2026-04-30 13:36 | 28.47434 | -87.25398 | 37002 ft | 504 kts | 106° |
| 2026-04-30 13:36 | 28.44169 | -87.14119 | 37002 ft | 503 kts | 106° |
| 2026-04-30 13:37 | 28.40879 | -87.02811 | 37001 ft | 502 kts | 106° |
| 2026-04-30 13:38 | 28.37588 | -86.91518 | 37002 ft | 502 kts | 106° |
| 2026-04-30 13:39 | 28.33223 | -86.76521 | 37005 ft | 499 kts | 106° |
| 2026-04-30 13:40 | 28.29935 | -86.65319 | 36995 ft | 498 kts | 106° |
| 2026-04-30 13:40 | 28.27754 | -86.57862 | 36997 ft | 497 kts | 106° |
| 2026-04-30 13:41 | 28.25588 | -86.50414 | 37007 ft | 496 kts | 106° |
| 2026-04-30 13:41 | 28.23417 | -86.42998 | 37008 ft | 495 kts | 107° |
| 2026-04-30 13:42 | 28.21251 | -86.35647 | 36998 ft | 494 kts | 107° |
| 2026-04-30 13:42 | 28.20162 | -86.31965 | 36838 ft | 493 kts | 107° |
| 2026-04-30 13:42 | 28.17999 | -86.24616 | 36432 ft | 491 kts | 107° |
| 2026-04-30 13:43 | 28.16918 | -86.20940 | 36228 ft | 491 kts | 107° |
| 2026-04-30 13:43 | 28.15836 | -86.17278 | 36048 ft | 490 kts | 107° |
| 2026-04-30 13:43 | 28.14748 | -86.13608 | 35834 ft | 489 kts | 107° |
| 2026-04-30 13:43 | 28.13669 | -86.09962 | 35645 ft | 488 kts | 107° |
| 2026-04-30 13:44 | 28.12589 | -86.06314 | 35452 ft | 488 kts | 107° |
| 2026-04-30 13:44 | 28.11508 | -86.02670 | 35260 ft | 487 kts | 107° |
| 2026-04-30 13:44 | 28.10426 | -85.99030 | 35068 ft | 487 kts | 107° |
| 2026-04-30 13:44 | 28.09344 | -85.95392 | 34880 ft | 487 kts | 108° |
| 2026-04-30 13:45 | 28.07196 | -85.88185 | 34503 ft | 486 kts | 108° |
| 2026-04-30 13:45 | 28.06094 | -85.84511 | 34325 ft | 486 kts | 108° |
| 2026-04-30 13:45 | 28.05025 | -85.80944 | 34143 ft | 485 kts | 108° |
| 2026-04-30 13:46 | 28.03943 | -85.77323 | 33953 ft | 485 kts | 108° |
| 2026-04-30 13:46 | 28.02864 | -85.73707 | 33743 ft | 484 kts | 108° |
| 2026-04-30 13:46 | 28.01795 | -85.70128 | 33533 ft | 475 kts | 108° |
| 2026-04-30 13:46 | 28.00744 | -85.66622 | 33321 ft | 466 kts | 108° |
| 2026-04-30 13:47 | 27.99706 | -85.63172 | 33106 ft | 462 kts | 108° |
| 2026-04-30 13:47 | 27.98669 | -85.59740 | 32898 ft | 459 kts | 108° |
| 2026-04-30 13:47 | 27.97637 | -85.56328 | 32695 ft | 457 kts | 108° |
| 2026-04-30 13:47 | 27.96608 | -85.52926 | 32492 ft | 456 kts | 108° |
| 2026-04-30 13:48 | 27.95602 | -85.49582 | 32299 ft | 455 kts | 108° |
| 2026-04-30 13:48 | 27.94584 | -85.46191 | 32102 ft | 454 kts | 108° |
| 2026-04-30 13:48 | 27.93564 | -85.42808 | 31918 ft | 454 kts | 108° |
| 2026-04-30 13:48 | 27.92540 | -85.39434 | 31706 ft | 452 kts | 108° |
| 2026-04-30 13:49 | 27.91523 | -85.36082 | 31481 ft | 451 kts | 108° |
| 2026-04-30 13:49 | 27.90508 | -85.32730 | 31237 ft | 450 kts | 108° |
| 2026-04-30 13:49 | 27.89500 | -85.29394 | 31004 ft | 449 kts | 108° |
| 2026-04-30 13:49 | 27.88522 | -85.26047 | 30769 ft | 447 kts | 104° |
| 2026-04-30 13:50 | 27.87878 | -85.22614 | 30536 ft | 446 kts | 99° |
| 2026-04-30 13:50 | 27.86738 | -85.15740 | 30076 ft | 444 kts | 99° |
| 2026-04-30 13:50 | 27.86161 | -85.12317 | 29810 ft | 444 kts | 99° |
| 2026-04-30 13:51 | 27.85584 | -85.08894 | 29542 ft | 442 kts | 99° |
| 2026-04-30 13:51 | 27.85009 | -85.05483 | 29275 ft | 441 kts | 99° |
| 2026-04-30 13:51 | 27.84434 | -85.02092 | 29013 ft | 439 kts | 99° |
| 2026-04-30 13:51 | 27.83861 | -84.98715 | 28754 ft | 436 kts | 99° |
| 2026-04-30 13:52 | 27.83300 | -84.95398 | 28494 ft | 435 kts | 99° |
| 2026-04-30 13:52 | 27.82737 | -84.92054 | 28227 ft | 433 kts | 99° |
| 2026-04-30 13:52 | 27.82173 | -84.88714 | 27994 ft | 432 kts | 99° |
| 2026-04-30 13:52 | 27.81616 | -84.85384 | 27730 ft | 430 kts | 97° |
| 2026-04-30 13:53 | 27.81344 | -84.82041 | 27477 ft | 427 kts | 88° |
| 2026-04-30 13:53 | 27.81453 | -84.78704 | 27229 ft | 424 kts | 84° |
| 2026-04-30 13:53 | 27.81622 | -84.75386 | 26983 ft | 423 kts | 84° |
| 2026-04-30 13:53 | 27.81733 | -84.73188 | 26819 ft | 422 kts | 84° |
| 2026-04-30 13:54 | 27.81894 | -84.69886 | 26578 ft | 421 kts | 84° |
| 2026-04-30 13:54 | 27.82047 | -84.66584 | 26343 ft | 420 kts | 84° |
| 2026-04-30 13:54 | 27.82197 | -84.63299 | 26049 ft | 417 kts | 84° |
| 2026-04-30 13:54 | 27.82354 | -84.59959 | 25748 ft | 436 kts | 84° |
| 2026-04-30 13:55 | 27.82523 | -84.56485 | 25449 ft | 447 kts | 84° |
| 2026-04-30 13:55 | 27.82694 | -84.53001 | 25148 ft | 449 kts | 84° |
| 2026-04-30 13:55 | 27.82866 | -84.49433 | 24843 ft | 449 kts | 84° |
| 2026-04-30 13:55 | 27.83026 | -84.45958 | 24546 ft | 448 kts | 84° |
| 2026-04-30 13:56 | 27.83184 | -84.42453 | 24265 ft | 447 kts | 84° |
| 2026-04-30 13:56 | 27.83340 | -84.38952 | 23977 ft | 445 kts | 84° |
| 2026-04-30 13:56 | 27.83496 | -84.35461 | 23696 ft | 444 kts | 84° |
| 2026-04-30 13:56 | 27.83654 | -84.31981 | 23374 ft | 442 kts | 84° |
| 2026-04-30 13:57 | 27.83810 | -84.28522 | 23036 ft | 440 kts | 84° |
| 2026-04-30 13:57 | 27.83964 | -84.25079 | 22701 ft | 438 kts | 84° |
| 2026-04-30 13:57 | 27.84114 | -84.21648 | 22367 ft | 436 kts | 84° |
| 2026-04-30 13:57 | 27.84266 | -84.18235 | 22034 ft | 433 kts | 84° |
| 2026-04-30 13:58 | 27.84418 | -84.14841 | 21712 ft | 431 kts | 84° |
| 2026-04-30 13:58 | 27.84712 | -84.08111 | 21072 ft | 427 kts | 84° |
| 2026-04-30 13:58 | 27.84860 | -84.04774 | 20762 ft | 425 kts | 84° |
| 2026-04-30 13:59 | 27.85007 | -84.01447 | 20448 ft | 422 kts | 84° |
| 2026-04-30 13:59 | 27.85150 | -83.98140 | 20137 ft | 420 kts | 84° |
| 2026-04-30 13:59 | 27.85290 | -83.94849 | 19823 ft | 418 kts | 84° |
| 2026-04-30 13:59 | 27.85428 | -83.91579 | 19499 ft | 416 kts | 84° |
| 2026-04-30 14:00 | 27.85610 | -83.88329 | 19172 ft | 412 kts | 83° |
| 2026-04-30 14:00 | 27.86138 | -83.81975 | 18539 ft | 406 kts | 81° |
| 2026-04-30 14:00 | 27.86436 | -83.78796 | 18232 ft | 404 kts | 81° |
| 2026-04-30 14:01 | 27.86725 | -83.75648 | 17869 ft | 402 kts | 81° |
| 2026-04-30 14:01 | 27.86997 | -83.72506 | 17508 ft | 400 kts | 82° |
| 2026-04-30 14:01 | 27.87254 | -83.69386 | 17151 ft | 398 kts | 82° |
| 2026-04-30 14:01 | 27.87503 | -83.66287 | 16799 ft | 395 kts | 82° |
| 2026-04-30 14:02 | 27.87748 | -83.63199 | 16451 ft | 393 kts | 82° |
| 2026-04-30 14:02 | 27.87990 | -83.60129 | 16095 ft | 390 kts | 82° |
| 2026-04-30 14:02 | 27.88228 | -83.57102 | 15763 ft | 383 kts | 82° |
| 2026-04-30 14:02 | 27.88463 | -83.54128 | 15426 ft | 377 kts | 82° |
| 2026-04-30 14:03 | 27.88695 | -83.51194 | 15094 ft | 372 kts | 82° |
| 2026-04-30 14:03 | 27.88924 | -83.48300 | 14764 ft | 367 kts | 82° |
| 2026-04-30 14:03 | 27.89150 | -83.45441 | 14437 ft | 363 kts | 82° |
| 2026-04-30 14:03 | 27.89374 | -83.42615 | 14115 ft | 359 kts | 82° |
| 2026-04-30 14:04 | 27.89594 | -83.39833 | 13741 ft | 350 kts | 82° |
| 2026-04-30 14:04 | 27.89805 | -83.37137 | 13332 ft | 339 kts | 82° |
| 2026-04-30 14:04 | 27.90012 | -83.34515 | 12937 ft | 340 kts | 82° |
| 2026-04-30 14:04 | 27.90224 | -83.31851 | 12540 ft | 340 kts | 82° |
| 2026-04-30 14:05 | 27.90383 | -83.29836 | 12255 ft | 340 kts | 83° |
| 2026-04-30 14:05 | 27.90594 | -83.27122 | 11847 ft | 340 kts | 83° |
| 2026-04-30 14:05 | 27.90799 | -83.24470 | 11459 ft | 340 kts | 83° |
| 2026-04-30 14:05 | 27.91001 | -83.21835 | 11069 ft | 331 kts | 83° |
| 2026-04-30 14:06 | 27.91135 | -83.19252 | 10689 ft | 327 kts | 93° |
| 2026-04-30 14:06 | 27.90201 | -83.14263 | 10144 ft | 325 kts | 104° |
| 2026-04-30 14:07 | 27.89100 | -83.09337 | 9659 ft | 322 kts | 104° |
| 2026-04-30 14:07 | 27.88550 | -83.06894 | 9401 ft | 320 kts | 104° |
| 2026-04-30 14:07 | 27.88003 | -83.04464 | 9148 ft | 318 kts | 104° |
| 2026-04-30 14:08 | 27.86924 | -82.99637 | 8647 ft | 315 kts | 104° |
| 2026-04-30 14:08 | 27.86396 | -82.97247 | 8401 ft | 313 kts | 104° |
| 2026-04-30 14:08 | 27.85362 | -82.92508 | 7916 ft | 309 kts | 104° |
| 2026-04-30 14:09 | 27.84852 | -82.90151 | 7678 ft | 307 kts | 104° |
| 2026-04-30 14:09 | 27.84349 | -82.87814 | 7440 ft | 306 kts | 104° |
| 2026-04-30 14:09 | 27.83367 | -82.83201 | 6954 ft | 298 kts | 104° |
| 2026-04-30 14:10 | 27.82892 | -82.80943 | 6729 ft | 294 kts | 104° |
| 2026-04-30 14:10 | 27.82422 | -82.78692 | 6497 ft | 292 kts | 104° |
| 2026-04-30 14:10 | 27.81965 | -82.76481 | 6255 ft | 289 kts | 104° |
| 2026-04-30 14:10 | 27.81525 | -82.74327 | 6002 ft | 279 kts | 104° |
| 2026-04-30 14:11 | 27.81108 | -82.72229 | 5708 ft | 269 kts | 104° |
| 2026-04-30 14:11 | 27.80718 | -82.70205 | 5418 ft | 259 kts | 104° |
| 2026-04-30 14:11 | 27.80353 | -82.68249 | 5125 ft | 250 kts | 104° |
| 2026-04-30 14:11 | 27.80010 | -82.66346 | 4834 ft | 245 kts | 104° |
| 2026-04-30 14:12 | 27.79684 | -82.64467 | 4523 ft | 243 kts | 104° |
| 2026-04-30 14:12 | 27.79361 | -82.62601 | 4240 ft | 242 kts | 103° |
| 2026-04-30 14:12 | 27.79033 | -82.60741 | 3947 ft | 242 kts | 101° |
| 2026-04-30 14:12 | 27.79085 | -82.58846 | 3651 ft | 243 kts | 74° |
| 2026-04-30 14:13 | 27.79869 | -82.57202 | 3388 ft | 236 kts | 45° |
| 2026-04-30 14:13 | 27.81158 | -82.56170 | 3142 ft | 222 kts | 18° |
| 2026-04-30 14:13 | 27.82619 | -82.55691 | 2904 ft | 216 kts | 12° |
| 2026-04-30 14:13 | 27.84049 | -82.55250 | 2653 ft | 210 kts | 13° |
| 2026-04-30 14:14 | 27.85445 | -82.54813 | 2383 ft | 206 kts | 13° |
| 2026-04-30 14:14 | 27.86801 | -82.54385 | 2146 ft | 196 kts | 13° |
| 2026-04-30 14:14 | 27.88079 | -82.53982 | 1867 ft | 185 kts | 12° |
| 2026-04-30 14:14 | 27.89282 | -82.53601 | 1595 ft | 176 kts | 12° |
| 2026-04-30 14:15 | 27.90430 | -82.53312 | 1378 ft | 162 kts | 7° |
| 2026-04-30 14:15 | 27.91507 | -82.53130 | 1155 ft | 153 kts | 2° |
| 2026-04-30 14:15 | 27.92564 | -82.53042 | 939 ft | 150 kts | 358° |
| 2026-04-30 14:15 | 27.93609 | -82.53000 | 705 ft | 150 kts | 359° |
| 2026-04-30 14:16 | 27.94670 | -82.52959 | 477 ft | 153 kts | 359° |
| 2026-04-30 14:16 | 27.95728 | -82.52925 | 259 ft | 155 kts | 359° |
| 2026-04-30 14:16 | 27.96803 | -82.52886 | 45 ft | 151 kts | 360° |
| 2026-04-30 14:16 | 27.97734 | -82.52859 | 39 ft | 112 kts | 2° |
| 2026-04-30 14:17 | 27.98251 | -82.52841 | 37 ft | 68 kts | 2° |
| 2026-04-30 14:17 | 27.98539 | -82.52830 | 38 ft | 23 kts | 0° |
| 2026-04-30 14:17 | 27.98591 | -82.52880 | 38 ft | 10 kts | 270° |
| 2026-04-30 14:17 | 27.98564 | -82.52941 | 41 ft | 9 kts | 212° |
| 2026-04-30 14:18 | 27.98496 | -82.52953 | 41 ft | 11 kts | 180° |
| 2026-04-30 14:18 | 27.98407 | -82.52955 | 41 ft | 14 kts | 182° |
| 2026-04-30 14:18 | 27.98171 | -82.52964 | 41 ft | 19 kts | 182° |
| 2026-04-30 14:19 | 27.97908 | -82.52973 | 42 ft | 16 kts | 181° |
| 2026-04-30 14:19 | 27.97848 | -82.52998 | 42 ft | 9 kts | 233° |
| 2026-04-30 14:19 | 27.97833 | -82.53060 | 43 ft | 2 kts | 264° |
| 2026-04-30 14:20 | 27.97832 | -82.53074 | 43 ft | 3 kts | 268° |
| 2026-04-30 14:20 | 27.97832 | -82.53110 | 43 ft | 6 kts | 270° |
| 2026-04-30 14:20 | 27.97821 | -82.53210 | 43 ft | 6 kts | 229° |
| 2026-04-30 14:21 | 27.97787 | -82.53224 | 43 ft | 5 kts | 192° |
| 2026-04-30 14:21 | 27.97775 | -82.53227 | 43 ft | 1 kts | 190° |